Blue Jay, California
Current Conditions -  °F | °C
As of 4:50 PM on Monday 26 Jan 2015 (Local Time) from KSBD Reporting Station
Overcast Overcast  
Wind Chill: 55°   Ceiling: 6500
Heat Index: 55°   Visibility: 4mi
Dew Point: 54°   Wind: 7mph
Humidity: 94%   Direction: 300°WNW
Pressure: 30.07"   Gusts: NA
Location:  34.25°N, 117.21°W
Report Text: KSBD 270050Z 30006KT 4SM -RN SCT019 OVC065 13/12 A3007
Loading
Personal Weather Stations






























Interactive Weather Map New forecast layout! Learn more

10-Day Weather Forecast

Advertisements
Track Severe Weather on mobile